createdAt,value
2022-11-03T00:02:08.651Z,2.00
2022-11-03T00:04:36.180Z,2.43
2022-11-03T00:07:03.681Z,2.13
2022-11-03T00:09:31.653Z,2.00
2022-11-03T00:11:59.123Z,2.33
2022-11-03T00:14:26.789Z,1.47
2022-11-03T00:16:54.849Z,1.47
2022-11-03T00:19:22.390Z,3.70
2022-11-03T00:21:50.099Z,0.90
2022-11-03T00:24:17.653Z,1.40
2022-11-03T00:26:45.092Z,1.57
2022-11-03T00:29:14.851Z,2.33
2022-11-03T00:31:44.577Z,1.20
2022-11-03T00:34:12.468Z,1.13
2022-11-03T00:36:42.298Z,1.40
2022-11-03T00:39:11.064Z,1.33
2022-11-03T00:41:39.303Z,1.33
2022-11-03T00:44:06.892Z,1.53
2022-11-03T00:46:35.695Z,1.60
2022-11-03T00:49:05.433Z,1.20
2022-11-03T00:51:35.121Z,2.30
2022-11-03T00:54:05.013Z,1.40
2022-11-03T00:56:35.449Z,1.20
2022-11-03T00:59:05.086Z,1.40
2022-11-03T01:01:45.159Z,1.53
2022-11-03T01:04:32.903Z,1.20
2022-11-03T01:07:02.019Z,1.30
2022-11-03T01:09:39.687Z,1.20
2022-11-03T01:12:16.169Z,1.93
2022-11-03T01:14:45.418Z,1.23
2022-11-03T01:17:25.120Z,2.27
2022-11-03T01:19:53.046Z,1.30
2022-11-03T01:22:22.242Z,1.63
2022-11-03T01:24:51.949Z,1.37
2022-11-03T01:27:20.938Z,1.60
2022-11-03T01:29:48.433Z,1.30
2022-11-03T01:32:16.284Z,1.37
2022-11-03T01:34:43.714Z,2.37
2022-11-03T01:37:11.253Z,3.37
2022-11-03T01:39:38.804Z,1.30
2022-11-03T01:42:06.404Z,1.50
2022-11-03T01:44:36.639Z,1.10
2022-11-03T01:47:07.748Z,0.80
2022-11-03T01:49:50.025Z,0.97
2022-11-03T01:52:30.500Z,0.70
2022-11-03T01:55:02.347Z,0.87
2022-11-03T01:57:37.957Z,1.27
2022-11-03T02:00:07.088Z,0.60
2022-11-03T02:02:41.179Z,2.70
2022-11-03T02:05:10.819Z,1.03
2022-11-03T02:08:01.972Z,1.87
2022-11-03T02:10:29.753Z,1.13
2022-11-03T02:12:57.818Z,0.83
2022-11-03T02:15:26.133Z,0.80
2022-11-03T02:17:56.198Z,0.90
2022-11-03T02:20:29.748Z,1.33
2022-11-03T02:23:42.209Z,1.20
2022-11-03T02:26:11.960Z,0.87
2022-11-03T02:28:39.474Z,1.33
2022-11-03T02:31:15.841Z,1.10
2022-11-03T02:34:04.673Z,0.87
2022-11-03T02:36:41.152Z,0.70
2022-11-03T02:39:22.120Z,0.90
2022-11-03T02:41:51.573Z,1.00
2022-11-03T02:44:20.607Z,0.90
2022-11-03T02:46:54.292Z,1.23
2022-11-03T02:49:21.767Z,2.00
2022-11-03T02:51:49.239Z,1.40
2022-11-03T02:54:23.105Z,1.13
2022-11-03T02:56:55.147Z,1.73
2022-11-03T02:59:30.953Z,1.00
2022-11-03T03:02:11.063Z,1.00
2022-11-03T03:04:47.030Z,1.13
2022-11-03T03:07:20.025Z,1.00
2022-11-03T03:09:58.405Z,1.40
2022-11-03T03:12:27.918Z,1.47
2022-11-03T03:14:58.701Z,1.20
2022-11-03T03:17:44.622Z,2.23
2022-11-03T03:20:23.088Z,2.47
2022-11-03T03:23:11.329Z,1.00
2022-11-03T03:25:50.035Z,1.10
2022-11-03T03:28:26.609Z,1.40
2022-11-03T03:30:57.216Z,1.20
2022-11-03T03:33:29.763Z,1.27
2022-11-03T03:36:03.478Z,1.60
2022-11-03T03:38:40.275Z,2.30
2022-11-03T03:41:11.663Z,1.50
2022-11-03T03:43:42.185Z,1.73
2022-11-03T03:46:13.796Z,1.70
2022-11-03T03:48:41.243Z,1.57
2022-11-03T03:51:09.300Z,1.70
2022-11-03T03:53:37.000Z,1.50
2022-11-03T03:56:05.956Z,1.80
2022-11-03T03:58:33.543Z,1.70
2022-11-03T04:01:01.104Z,2.23
2022-11-03T04:03:29.416Z,1.60
2022-11-03T04:05:56.876Z,1.27
2022-11-03T04:08:24.430Z,1.23
2022-11-03T04:11:10.718Z,1.70
2022-11-03T04:13:56.583Z,0.93
2022-11-03T04:16:42.781Z,1.37
2022-11-03T04:19:31.476Z,2.20
2022-11-03T04:22:17.198Z,1.20
2022-11-03T04:24:50.056Z,1.13
2022-11-03T04:27:36.727Z,4.37
2022-11-03T04:30:09.893Z,1.57
2022-11-03T04:32:38.147Z,1.17
2022-11-03T04:35:21.986Z,1.30
2022-11-03T04:37:55.368Z,2.57
2022-11-03T04:40:23.366Z,1.60
2022-11-03T04:42:50.901Z,3.47
2022-11-03T04:45:24.835Z,1.60
2022-11-03T04:47:53.996Z,3.37
2022-11-03T04:50:23.811Z,1.63
2022-11-03T04:52:56.370Z,2.80
2022-11-03T04:55:24.645Z,2.03
2022-11-03T04:58:00.332Z,1.57
2022-11-03T05:00:27.991Z,1.60
2022-11-03T05:02:56.365Z,2.53
2022-11-03T05:05:26.838Z,1.40
2022-11-03T05:07:56.970Z,2.20
2022-11-03T05:10:29.554Z,1.77
2022-11-03T05:13:00.455Z,2.87
2022-11-03T05:15:29.239Z,2.20
2022-11-03T05:17:58.166Z,2.23
2022-11-03T05:20:44.545Z,1.20
2022-11-03T05:23:12.645Z,1.00
2022-11-03T05:25:47.186Z,1.37
2022-11-03T05:28:20.848Z,1.40
2022-11-03T05:30:49.736Z,2.30
2022-11-03T05:33:22.518Z,0.90
2022-11-03T05:35:50.310Z,2.90
2022-11-03T05:38:20.424Z,1.17
2022-11-03T05:40:51.850Z,1.27
2022-11-03T05:43:20.538Z,1.30
2022-11-03T05:45:51.562Z,2.30
2022-11-03T05:48:28.203Z,2.30
2022-11-03T05:51:00.247Z,1.10
2022-11-03T05:53:38.535Z,1.67
2022-11-03T05:56:07.289Z,0.90
2022-11-03T05:58:38.712Z,5.00
2022-11-03T06:01:32.656Z,1.67
2022-11-03T06:04:04.325Z,1.57
2022-11-03T06:06:38.562Z,3.43
2022-11-03T06:09:16.765Z,2.10
2022-11-03T06:11:45.244Z,3.53
2022-11-03T06:14:25.086Z,3.23
2022-11-03T06:17:06.134Z,1.47
2022-11-03T06:19:48.177Z,1.50
2022-11-03T06:22:20.813Z,1.50
2022-11-03T06:24:48.614Z,1.37
2022-11-03T06:27:29.430Z,1.80
2022-11-03T06:30:01.606Z,1.70
2022-11-03T06:32:33.511Z,1.50
2022-11-03T06:35:00.994Z,1.73
2022-11-03T06:37:32.527Z,1.67
2022-11-03T06:40:24.812Z,1.47
2022-11-03T06:42:58.763Z,1.90
2022-11-03T06:45:26.793Z,3.87
2022-11-03T06:47:54.787Z,6.57
2022-11-03T06:50:30.824Z,4.07
2022-11-03T06:53:03.032Z,3.00
2022-11-03T06:55:33.553Z,2.97
2022-11-03T06:58:08.263Z,3.53
2022-11-03T07:00:41.022Z,4.53
2022-11-03T07:03:16.987Z,2.60
2022-11-03T07:05:45.404Z,4.67
2022-11-03T07:08:35.521Z,2.90
2022-11-03T07:11:19.893Z,3.77
2022-11-03T07:13:53.333Z,2.83
2022-11-03T07:16:34.050Z,2.33
2022-11-03T07:19:10.251Z,2.50
2022-11-03T07:21:56.128Z,2.67
2022-11-03T07:24:26.587Z,4.83
2022-11-03T07:27:29.132Z,5.27
2022-11-03T07:30:18.154Z,3.00
2022-11-03T07:32:46.144Z,2.47
2022-11-03T07:36:00.499Z,5.07
2022-11-03T07:38:25.645Z,2.43
2022-11-03T07:40:54.243Z,2.37
2022-11-03T07:43:38.413Z,2.50
2022-11-03T07:46:06.704Z,3.00
2022-11-03T07:48:42.661Z,5.00
2022-11-03T07:51:20.151Z,2.60
2022-11-03T07:53:50.076Z,5.47
2022-11-03T07:56:21.798Z,4.63
2022-11-03T07:58:53.784Z,4.17
2022-11-03T08:01:31.842Z,4.63
2022-11-03T08:04:05.057Z,4.20
2022-11-03T08:06:35.183Z,3.83
2022-11-03T08:09:06.137Z,6.37
2022-11-03T08:11:35.977Z,3.10
2022-11-03T08:14:03.556Z,7.97
2022-11-03T08:16:31.159Z,4.93
2022-11-03T08:18:59.554Z,6.43
2022-11-03T08:21:27.117Z,6.30
2022-11-03T08:23:54.831Z,4.50
2022-11-03T08:26:22.668Z,4.47
2022-11-03T08:28:50.272Z,4.33
2022-11-03T08:31:17.930Z,7.30
2022-11-03T08:33:45.539Z,6.67
2022-11-03T08:36:13.271Z,4.57
2022-11-03T08:38:41.014Z,6.77
2022-11-03T08:41:08.570Z,7.67
2022-11-03T08:43:36.018Z,4.07
2022-11-03T08:46:13.947Z,5.00
2022-11-03T08:48:45.273Z,11.37
2022-11-03T08:51:14.649Z,5.73
2022-11-03T08:53:43.355Z,7.53
2022-11-03T08:56:13.499Z,3.33
2022-11-03T08:58:44.239Z,6.00
2022-11-03T09:01:12.475Z,4.40
2022-11-03T09:03:41.209Z,5.70
2022-11-03T09:06:09.250Z,5.63
2022-11-03T09:11:24.383Z,2.53
2022-11-03T09:13:51.921Z,5.90
2022-11-03T09:16:19.357Z,6.77
2022-11-03T09:18:46.900Z,3.07
2022-11-03T09:21:17.022Z,4.17
2022-11-03T09:23:44.555Z,3.67
2022-11-03T09:26:13.124Z,6.47
2022-11-03T09:28:40.681Z,4.60
2022-11-03T09:31:08.422Z,3.50
2022-11-03T09:33:35.965Z,8.33
2022-11-03T09:36:03.512Z,7.67
2022-11-03T09:38:31.080Z,3.80
2022-11-03T09:40:59.159Z,5.73
2022-11-03T09:43:26.623Z,7.90
2022-11-03T09:45:54.584Z,8.43
2022-11-03T09:48:22.079Z,10.00
2022-11-03T09:50:53.063Z,5.77
2022-11-03T09:53:21.719Z,5.17
2022-11-03T09:55:51.597Z,7.03
2022-11-03T09:58:20.577Z,9.13
2022-11-03T10:00:48.167Z,3.53
2022-11-03T10:03:18.184Z,3.80
2022-11-03T10:05:45.948Z,6.00
2022-11-03T10:08:25.795Z,5.07
2022-11-03T10:10:54.471Z,3.90
2022-11-03T10:13:36.670Z,4.20
2022-11-03T10:16:08.016Z,4.13
2022-11-03T10:18:37.028Z,4.10
2022-11-03T10:21:17.321Z,4.50
2022-11-03T10:23:45.330Z,6.53
2022-11-03T10:26:19.254Z,6.80
2022-11-03T10:29:23.201Z,5.67
2022-11-03T10:31:53.547Z,9.37
2022-11-03T10:34:33.453Z,11.30
2022-11-03T10:37:12.801Z,11.83
2022-11-03T10:39:40.404Z,5.50
2022-11-03T10:42:21.262Z,6.97
2022-11-03T10:44:52.777Z,3.67
2022-11-03T10:47:33.978Z,2.70
2022-11-03T10:50:22.572Z,4.90
2022-11-03T10:52:50.700Z,4.77
2022-11-03T10:55:23.791Z,6.63
2022-11-03T10:57:55.814Z,4.57
2022-11-03T11:00:24.518Z,4.53
2022-11-03T11:02:58.974Z,8.63
2022-11-03T11:05:28.768Z,5.00
2022-11-03T11:07:56.639Z,4.50
2022-11-03T11:10:29.297Z,2.93
2022-11-03T11:13:24.495Z,8.73
2022-11-03T11:16:00.330Z,7.47
2022-11-03T11:18:31.085Z,3.73
2022-11-03T11:21:22.504Z,8.63
2022-11-03T11:23:52.917Z,3.93
2022-11-03T11:26:26.494Z,4.77
2022-11-03T11:29:09.177Z,8.27
2022-11-03T11:31:37.701Z,4.93
